Time;durP1;ratioP1;P1;durP2;ratioP2;P2;SDS_P1;SDS_P2;PMS_P1;PMS_P2;Temp;Humidity;BMP_temperature;BMP_pressure;BME280_temperature;BME280_humidity;BME280_pressure;Samples;Min_cycle;Max_cycle;Signal;HPM_P1;HPM_P2
2023/01/17 00:00:38;;;;;;;0.60;0.27;;;;;;;;;;5056140;28;20496;-55
2023/01/17 00:03:04;;;;;;;0.40;0.30;;;;;;;;;;5055717;28;20073;-53
2023/01/17 00:10:59;;;;;;;1.03;0.70;;;;;;;;;;5056557;28;20044;-52
2023/01/17 00:13:26;;;;;;;0.20;0.10;;;;;;;;;;5055979;28;20025;-54
2023/01/17 00:15:51;;;;;;;0.20;0.20;;;;;;;;;;5056120;28;20364;-51
2023/01/17 00:18:17;;;;;;;0.67;0.37;;;;;;;;;;5055850;28;20025;-51
2023/01/17 00:26:15;;;;;;;0.97;0.33;;;;;;;;;;5055468;28;20036;-52
2023/01/17 01:35:52;;;;;;;0.20;0.20;;;;;;;;;;5054471;28;20374;-54
2023/01/17 01:38:19;;;;;;;7.37;0.80;;;;;;;;;;5054346;28;20056;-54
2023/01/17 01:40:46;;;;;;;0.33;0.20;;;;;;;;;;5053784;28;20363;-51
2023/01/17 01:43:13;;;;;;;0.77;0.50;;;;;;;;;;5054063;28;20078;-51
2023/01/17 01:45:39;;;;;;;0.90;0.63;;;;;;;;;;5054982;28;20036;-53
2023/01/17 01:48:14;;;;;;;0.80;0.47;;;;;;;;;;5053762;28;20467;-49
2023/01/17 01:50:40;;;;;;;2.27;0.50;;;;;;;;;;5054200;28;20032;-51
2023/01/17 01:53:06;;;;;;;1.50;0.70;;;;;;;;;;5054694;28;20053;-54
2023/01/17 01:55:34;;;;;;;1.23;0.67;;;;;;;;;;5054080;28;20029;-53
2023/01/17 01:58:02;;;;;;;0.80;0.53;;;;;;;;;;5053788;28;20029;-53
2023/01/17 02:00:30;;;;;;;1.50;0.73;;;;;;;;;;5054512;28;20051;-51
2023/01/17 02:02:58;;;;;;;0.27;0.27;;;;;;;;;;5052752;28;20056;-54
2023/01/17 02:05:24;;;;;;;0.80;0.53;;;;;;;;;;5054058;28;20049;-53
2023/01/17 02:08:02;;;;;;;1.13;0.60;;;;;;;;;;5053891;28;20367;-56
2023/01/17 02:10:30;;;;;;;0.30;0.23;;;;;;;;;;5054700;28;20032;-55
2023/01/17 02:12:56;;;;;;;0.50;0.30;;;;;;;;;;5053875;28;20082;-52
2023/01/17 02:15:25;;;;;;;4.00;1.17;;;;;;;;;;5054145;28;20484;-54
2023/01/17 02:18:09;;;;;;;0.30;0.20;;;;;;;;;;5053771;28;20025;-51
2023/01/17 02:20:47;;;;;;;3.00;0.83;;;;;;;;;;5053740;28;20062;-53
2023/01/17 02:23:23;;;;;;;0.97;0.67;;;;;;;;;;5053954;28;20471;-51
2023/01/17 02:26:04;;;;;;;0.23;0.17;;;;;;;;;;5054257;28;20033;-56
2023/01/17 02:28:36;;;;;;;1.97;0.73;;;;;;;;;;5053608;28;20029;-52
2023/01/17 02:31:05;;;;;;;0.90;0.50;;;;;;;;;;5053633;28;20021;-54
2023/01/17 02:33:31;;;;;;;0.83;0.50;;;;;;;;;;5053912;28;20021;-52
2023/01/17 02:36:03;;;;;;;0.50;0.33;;;;;;;;;;5054169;28;20040;-55
2023/01/17 02:38:35;;;;;;;2.53;0.97;;;;;;;;;;5053585;28;20029;-51
2023/01/17 02:41:06;;;;;;;1.17;0.63;;;;;;;;;;5053569;28;20148;-53
2023/01/17 02:43:33;;;;;;;1.00;0.80;;;;;;;;;;5053453;28;20025;-54
2023/01/17 02:45:59;;;;;;;2.03;0.50;;;;;;;;;;5054057;28;20040;-55
2023/01/17 02:48:27;;;;;;;0.50;0.40;;;;;;;;;;5053573;28;20371;-54
2023/01/17 02:51:11;;;;;;;1.63;0.90;;;;;;;;;;5053711;28;20025;-55
2023/01/17 02:53:41;;;;;;;1.30;0.90;;;;;;;;;;5056532;28;20401;-55
2023/01/17 02:56:30;;;;;;;0.60;0.47;;;;;;;;;;5057992;28;20033;-54
2023/01/17 02:59:06;;;;;;;1.13;0.77;;;;;;;;;;5057406;28;20451;-56
2023/01/17 03:01:45;;;;;;;0.53;0.23;;;;;;;;;;5057421;28;20072;-49
2023/01/17 03:04:17;;;;;;;1.60;0.50;;;;;;;;;;5057360;28;20037;-49
2023/01/17 03:06:46;;;;;;;1.10;0.70;;;;;;;;;;5057559;28;20108;-48
2023/01/17 03:09:14;;;;;;;1.37;1.00;;;;;;;;;;5057147;28;20033;-51
2023/01/17 03:11:40;;;;;;;1.23;0.77;;;;;;;;;;5057078;28;20111;-49
2023/01/17 03:14:06;;;;;;;0.70;0.40;;;;;;;;;;5057074;28;20109;-52
2023/01/17 03:16:33;;;;;;;1.00;0.63;;;;;;;;;;5057569;28;20036;-53
2023/01/17 03:18:59;;;;;;;0.83;0.53;;;;;;;;;;5057417;28;20106;-56
2023/01/17 03:21:25;;;;;;;1.00;0.60;;;;;;;;;;5057074;28;20451;-56
2023/01/17 03:23:52;;;;;;;1.40;0.80;;;;;;;;;;5056504;28;20036;-56
2023/01/17 03:26:18;;;;;;;1.53;1.00;;;;;;;;;;5057125;28;20025;-56
2023/01/17 03:28:44;;;;;;;1.57;0.97;;;;;;;;;;5056838;28;20025;-55
2023/01/17 03:31:13;;;;;;;0.47;0.30;;;;;;;;;;5056932;28;20028;-55
2023/01/17 03:33:39;;;;;;;1.30;0.73;;;;;;;;;;5056661;28;20039;-53
2023/01/17 03:36:05;;;;;;;1.37;0.80;;;;;;;;;;5057098;28;20025;-54
2023/01/17 03:38:31;;;;;;;0.47;0.43;;;;;;;;;;5056914;28;20036;-54
2023/01/17 03:40:57;;;;;;;1.40;1.13;;;;;;;;;;5056596;28;20331;-55
2023/01/17 03:43:23;;;;;;;0.80;0.60;;;;;;;;;;5056448;28;20090;-52
2023/01/17 03:45:50;;;;;;;1.20;0.63;;;;;;;;;;5056491;28;20040;-51
2023/01/17 03:48:17;;;;;;;2.60;0.97;;;;;;;;;;5056380;28;20071;-56
2023/01/17 03:50:43;;;;;;;1.30;0.90;;;;;;;;;;5056332;28;20522;-50
2023/01/17 03:53:09;;;;;;;1.07;0.60;;;;;;;;;;5056247;28;20114;-54
2023/01/17 03:55:35;;;;;;;1.60;0.83;;;;;;;;;;5056605;28;20033;-55
2023/01/17 03:58:01;;;;;;;2.73;0.93;;;;;;;;;;5056721;28;20033;-55
2023/01/17 04:00:27;;;;;;;1.10;0.70;;;;;;;;;;5056600;28;20078;-53
2023/01/17 04:02:54;;;;;;;1.33;0.90;;;;;;;;;;5056113;28;20045;-55
2023/01/17 04:05:19;;;;;;;0.97;0.57;;;;;;;;;;5054771;28;20483;-54
2023/01/17 04:07:45;;;;;;;0.63;0.50;;;;;;;;;;5055743;28;20025;-52
2023/01/17 04:10:11;;;;;;;0.90;0.67;;;;;;;;;;5056202;28;20029;-55
2023/01/17 04:12:37;;;;;;;0.83;0.53;;;;;;;;;;5056169;28;20048;-55
2023/01/17 04:15:03;;;;;;;1.70;0.40;;;;;;;;;;5056381;28;20107;-54
2023/01/17 04:17:30;;;;;;;1.00;0.50;;;;;;;;;;5055780;28;20029;-55
2023/01/17 04:19:56;;;;;;;0.80;0.50;;;;;;;;;;5055997;28;20405;-55
2023/01/17 04:22:22;;;;;;;1.73;1.00;;;;;;;;;;5055748;28;20029;-55
2023/01/17 04:24:48;;;;;;;1.83;1.03;;;;;;;;;;5056162;28;20032;-53
2023/01/17 04:27:14;;;;;;;1.30;0.77;;;;;;;;;;5055845;28;20033;-52
2023/01/17 04:29:40;;;;;;;1.47;0.90;;;;;;;;;;5055575;28;20057;-50
2023/01/17 04:32:06;;;;;;;2.00;0.60;;;;;;;;;;5055646;28;20098;-53
2023/01/17 04:34:32;;;;;;;0.50;0.33;;;;;;;;;;5056006;28;20029;-55
2023/01/17 04:36:58;;;;;;;3.03;1.27;;;;;;;;;;5056066;28;20356;-49
2023/01/17 04:39:24;;;;;;;0.80;0.43;;;;;;;;;;5055435;28;20426;-56
2023/01/17 04:41:50;;;;;;;1.60;0.80;;;;;;;;;;5055439;28;20031;-53
2023/01/17 04:44:16;;;;;;;1.57;1.00;;;;;;;;;;5056201;28;20182;-55
2023/01/17 04:46:42;;;;;;;1.47;0.77;;;;;;;;;;5055796;28;20025;-54
2023/01/17 04:49:08;;;;;;;0.73;0.50;;;;;;;;;;5055583;28;20033;-55
2023/01/17 04:51:34;;;;;;;5.20;0.80;;;;;;;;;;5055220;28;20075;-56
2023/01/17 04:54:00;;;;;;;1.57;0.87;;;;;;;;;;5055244;28;20039;-54
2023/01/17 04:56:26;;;;;;;1.47;0.97;;;;;;;;;;5054899;28;20064;-55
2023/01/17 04:58:52;;;;;;;1.27;0.53;;;;;;;;;;5055032;28;20070;-55
2023/01/17 05:01:18;;;;;;;3.33;0.90;;;;;;;;;;5054558;28;20036;-54
2023/01/17 05:03:44;;;;;;;1.57;0.80;;;;;;;;;;5055482;28;20033;-53
2023/01/17 05:06:10;;;;;;;2.30;1.07;;;;;;;;;;5054711;28;20036;-54
2023/01/17 05:08:36;;;;;;;1.10;0.60;;;;;;;;;;5055147;28;20032;-52
2023/01/17 05:11:02;;;;;;;1.57;0.70;;;;;;;;;;5055516;28;20036;-55
2023/01/17 05:13:27;;;;;;;1.07;0.60;;;;;;;;;;5055152;28;20435;-54
2023/01/17 05:15:53;;;;;;;1.73;0.90;;;;;;;;;;5054987;28;20033;-53
2023/01/17 05:18:19;;;;;;;1.70;0.93;;;;;;;;;;5054479;28;20021;-55
2023/01/17 05:20:45;;;;;;;2.17;1.03;;;;;;;;;;5054674;28;20029;-53
2023/01/17 05:23:12;;;;;;;1.67;0.97;;;;;;;;;;5054597;28;20115;-55
2023/01/17 05:25:43;;;;;;;2.13;1.17;;;;;;;;;;5054787;28;20040;-52
2023/01/17 05:28:09;;;;;;;2.43;1.47;;;;;;;;;;5054875;28;20036;-53
2023/01/17 05:30:35;;;;;;;1.47;1.00;;;;;;;;;;5054430;28;20025;-54
2023/01/17 05:33:01;;;;;;;1.80;0.80;;;;;;;;;;5054338;28;20099;-54
2023/01/17 05:35:28;;;;;;;1.60;1.17;;;;;;;;;;5054286;28;20025;-54
2023/01/17 05:37:54;;;;;;;2.20;1.27;;;;;;;;;;5054940;28;20025;-54
2023/01/17 05:40:22;;;;;;;1.70;1.20;;;;;;;;;;5054593;28;20025;-56
2023/01/17 05:42:48;;;;;;;1.33;0.80;;;;;;;;;;5054253;28;20029;-56
2023/01/17 05:45:18;;;;;;;1.93;1.00;;;;;;;;;;5054437;28;20100;-56
2023/01/17 05:47:44;;;;;;;1.53;0.93;;;;;;;;;;5054657;28;20037;-53
2023/01/17 05:50:11;;;;;;;2.73;1.00;;;;;;;;;;5054088;28;20032;-49
2023/01/17 05:52:37;;;;;;;1.73;0.77;;;;;;;;;;5054120;28;20162;-53
2023/01/17 05:55:05;;;;;;;1.47;1.10;;;;;;;;;;5054103;28;20112;-56
2023/01/17 05:57:31;;;;;;;1.17;0.70;;;;;;;;;;5054387;28;20055;-53
2023/01/17 05:59:57;;;;;;;1.73;0.80;;;;;;;;;;5053905;28;20477;-56
2023/01/17 06:02:23;;;;;;;1.20;0.53;;;;;;;;;;5053765;28;20045;-52
2023/01/17 06:04:49;;;;;;;1.60;1.00;;;;;;;;;;5054147;28;20049;-55
2023/01/17 06:07:15;;;;;;;1.63;0.80;;;;;;;;;;5054163;28;20036;-51
2023/01/17 06:09:41;;;;;;;1.47;1.00;;;;;;;;;;5053823;28;20465;-53
2023/01/17 06:12:07;;;;;;;0.87;0.67;;;;;;;;;;5053726;28;20048;-54
2023/01/17 06:14:33;;;;;;;2.63;0.93;;;;;;;;;;5054094;28;20036;-52
2023/01/17 06:16:59;;;;;;;1.93;1.43;;;;;;;;;;5054361;28;20375;-55
2023/01/17 06:19:25;;;;;;;0.53;0.37;;;;;;;;;;5053551;28;20057;-52
2023/01/17 06:21:51;;;;;;;3.03;1.77;;;;;;;;;;5053596;28;20063;-52
2023/01/17 06:24:16;;;;;;;1.30;0.93;;;;;;;;;;5053733;28;20029;-55
2023/01/17 06:26:43;;;;;;;1.20;0.80;;;;;;;;;;5052072;28;20077;-52
2023/01/17 06:29:10;;;;;;;3.40;1.70;;;;;;;;;;5053249;28;20044;-55
2023/01/17 06:31:36;;;;;;;0.80;0.50;;;;;;;;;;5053224;28;20025;-52
2023/01/17 06:34:02;;;;;;;3.00;1.03;;;;;;;;;;5053657;28;20035;-55
2023/01/17 06:36:29;;;;;;;2.30;1.37;;;;;;;;;;5053143;28;20391;-55
2023/01/17 06:38:54;;;;;;;1.47;1.13;;;;;;;;;;5053522;28;20025;-55
2023/01/17 06:41:22;;;;;;;1.17;0.97;;;;;;;;;;5053312;28;20071;-50
2023/01/17 06:43:48;;;;;;;1.33;0.83;;;;;;;;;;5053264;28;20482;-55
2023/01/17 06:46:14;;;;;;;4.73;1.70;;;;;;;;;;5053952;28;20025;-52
2023/01/17 06:48:42;;;;;;;1.27;0.83;;;;;;;;;;5053418;28;20025;-52
2023/01/17 06:51:08;;;;;;;1.57;1.03;;;;;;;;;;5053238;28;20107;-55
2023/01/17 06:53:34;;;;;;;2.40;1.80;;;;;;;;;;5053232;28;20025;-54
2023/01/17 06:56:00;;;;;;;1.37;1.23;;;;;;;;;;5053198;28;20533;-53
2023/01/17 06:58:26;;;;;;;3.13;1.70;;;;;;;;;;5053463;28;20052;-55
2023/01/17 07:00:52;;;;;;;1.27;0.83;;;;;;;;;;5053153;28;20094;-56
2023/01/17 07:03:19;;;;;;;1.93;1.20;;;;;;;;;;5052982;28;20535;-53
2023/01/17 07:05:45;;;;;;;2.83;1.67;;;;;;;;;;5052978;28;20049;-55
2023/01/17 07:08:11;;;;;;;1.73;0.93;;;;;;;;;;5053230;28;20450;-53
2023/01/17 07:10:37;;;;;;;2.03;1.00;;;;;;;;;;5053543;28;20163;-55
2023/01/17 07:13:03;;;;;;;3.37;1.40;;;;;;;;;;5053464;28;20021;-51
2023/01/17 07:15:29;;;;;;;1.07;0.63;;;;;;;;;;5052756;28;20547;-54
2023/01/17 07:17:55;;;;;;;3.10;2.17;;;;;;;;;;5053671;28;20028;-50
2023/01/17 07:20:21;;;;;;;4.03;1.90;;;;;;;;;;5053432;28;20374;-50
2023/01/17 07:22:47;;;;;;;2.73;1.83;;;;;;;;;;5053002;28;20035;-55
2023/01/17 07:25:13;;;;;;;1.67;1.13;;;;;;;;;;5052954;28;20548;-54
2023/01/17 07:27:39;;;;;;;2.27;1.43;;;;;;;;;;5052897;28;20142;-55
2023/01/17 07:30:05;;;;;;;3.67;2.40;;;;;;;;;;5052954;28;20124;-54
2023/01/17 07:32:31;;;;;;;2.67;1.77;;;;;;;;;;5052969;28;20471;-56
2023/01/17 07:34:57;;;;;;;2.67;1.83;;;;;;;;;;5053204;28;20070;-50
2023/01/17 07:37:25;;;;;;;2.10;1.20;;;;;;;;;;5053478;28;20029;-50
2023/01/17 07:39:51;;;;;;;2.20;1.67;;;;;;;;;;5054084;28;20423;-52
2023/01/17 07:42:17;;;;;;;3.17;1.70;;;;;;;;;;5056497;28;20056;-54
2023/01/17 07:44:44;;;;;;;1.43;0.97;;;;;;;;;;5056691;28;20401;-54
2023/01/17 07:47:10;;;;;;;1.97;1.20;;;;;;;;;;5056327;28;20033;-56
2023/01/17 07:49:36;;;;;;;3.70;1.50;;;;;;;;;;5056592;28;20025;-52
2023/01/17 07:52:02;;;;;;;2.03;1.50;;;;;;;;;;5056273;28;20463;-56
2023/01/17 07:54:28;;;;;;;3.00;1.70;;;;;;;;;;5056569;28;20063;-54
2023/01/17 07:56:54;;;;;;;12.60;2.07;;;;;;;;;;5055820;28;20051;-54
2023/01/17 07:59:20;;;;;;;3.50;2.17;;;;;;;;;;5055815;28;20025;-52
2023/01/17 08:01:46;;;;;;;1.90;1.33;;;;;;;;;;5056011;28;20049;-56
2023/01/17 08:04:13;;;;;;;3.07;1.67;;;;;;;;;;5056214;28;20041;-53
2023/01/17 08:06:41;;;;;;;3.23;1.57;;;;;;;;;;5056002;28;20373;-55
2023/01/17 08:09:07;;;;;;;2.40;2.03;;;;;;;;;;5056033;28;20067;-56
2023/01/17 08:11:33;;;;;;;2.67;1.80;;;;;;;;;;5055877;28;20394;-52
2023/01/17 08:13:59;;;;;;;3.33;1.50;;;;;;;;;;5056411;28;20029;-52
2023/01/17 08:16:27;;;;;;;2.60;1.77;;;;;;;;;;5056238;28;20051;-56
2023/01/17 08:18:54;;;;;;;1.50;1.10;;;;;;;;;;5055849;28;20096;-55
2023/01/17 08:21:20;;;;;;;1.97;1.43;;;;;;;;;;5055888;28;20029;-54
2023/01/17 08:23:49;;;;;;;2.73;1.77;;;;;;;;;;5055844;28;20366;-56
2023/01/17 08:26:20;;;;;;;5.00;2.47;;;;;;;;;;5056173;28;20033;-54
2023/01/17 08:28:58;;;;;;;2.37;1.50;;;;;;;;;;5056549;28;20060;-56
2023/01/17 08:31:24;;;;;;;4.27;2.53;;;;;;;;;;5056507;28;20079;-54
2023/01/17 08:33:50;;;;;;;2.33;1.27;;;;;;;;;;5055568;28;20017;-54
2023/01/17 08:36:17;;;;;;;4.37;2.10;;;;;;;;;;5055963;28;20032;-55
2023/01/17 08:38:43;;;;;;;2.03;0.97;;;;;;;;;;5055474;28;20033;-53
2023/01/17 08:41:08;;;;;;;3.37;2.37;;;;;;;;;;5055944;28;20037;-55
2023/01/17 08:43:34;;;;;;;2.60;1.93;;;;;;;;;;5055723;28;20451;-55
2023/01/17 08:46:01;;;;;;;4.43;1.80;;;;;;;;;;5055640;28;20064;-56
2023/01/17 08:48:27;;;;;;;3.03;1.87;;;;;;;;;;5055350;28;20026;-54
2023/01/17 08:50:53;;;;;;;3.10;2.50;;;;;;;;;;5054850;28;20151;-51
2023/01/17 08:53:20;;;;;;;2.87;1.77;;;;;;;;;;5055239;28;20032;-55
2023/01/17 08:55:46;;;;;;;5.60;2.10;;;;;;;;;;5055719;28;20060;-54
2023/01/17 08:58:12;;;;;;;5.10;2.37;;;;;;;;;;5055202;28;20025;-55
2023/01/17 09:00:38;;;;;;;2.83;2.40;;;;;;;;;;5055350;28;20086;-56
2023/01/17 09:03:09;;;;;;;3.67;2.50;;;;;;;;;;5054577;28;20080;-55
2023/01/17 09:05:35;;;;;;;3.53;2.30;;;;;;;;;;5054867;28;20033;-53
2023/01/17 09:08:01;;;;;;;2.67;1.93;;;;;;;;;;5055158;28;20025;-52
2023/01/17 09:10:27;;;;;;;3.03;1.53;;;;;;;;;;5054931;28;20466;-56
2023/01/17 09:12:53;;;;;;;7.87;2.23;;;;;;;;;;5055135;28;20079;-56
2023/01/17 09:15:19;;;;;;;2.93;1.37;;;;;;;;;;5055393;28;20366;-53
2023/01/17 09:17:46;;;;;;;2.07;1.40;;;;;;;;;;5054800;28;20040;-55
2023/01/17 09:20:12;;;;;;;2.67;1.93;;;;;;;;;;5054939;28;20477;-55
2023/01/17 09:22:38;;;;;;;3.63;1.83;;;;;;;;;;5054703;28;20109;-54
2023/01/17 09:25:05;;;;;;;2.30;1.40;;;;;;;;;;5054670;28;20445;-53
2023/01/17 09:27:31;;;;;;;7.57;1.80;;;;;;;;;;5054292;28;20466;-55
2023/01/17 09:29:57;;;;;;;3.37;1.40;;;;;;;;;;5054385;28;20059;-56
2023/01/17 09:32:23;;;;;;;2.20;1.70;;;;;;;;;;5054473;28;20025;-56
2023/01/17 09:34:49;;;;;;;2.20;1.27;;;;;;;;;;5054378;28;20028;-52
2023/01/17 09:37:15;;;;;;;3.40;2.43;;;;;;;;;;5054151;28;20033;-53
2023/01/17 09:39:41;;;;;;;5.50;2.27;;;;;;;;;;5054137;28;20028;-54
2023/01/17 09:42:21;;;;;;;2.27;1.33;;;;;;;;;;5054938;28;20455;-55
2023/01/17 09:44:50;;;;;;;1.83;1.10;;;;;;;;;;5054104;28;20057;-55
2023/01/17 09:47:35;;;;;;;2.80;1.83;;;;;;;;;;5054188;28;20044;-52
2023/01/17 09:50:14;;;;;;;2.73;1.60;;;;;;;;;;5054111;28;20028;-52
2023/01/17 09:52:40;;;;;;;4.23;3.37;;;;;;;;;;5054128;28;20410;-55
2023/01/17 09:55:06;;;;;;;2.77;1.80;;;;;;;;;;5054716;28;20028;-53
2023/01/17 09:57:50;;;;;;;2.87;2.20;;;;;;;;;;5054800;28;20033;-55
2023/01/17 10:00:30;;;;;;;2.90;1.50;;;;;;;;;;5053908;28;20043;-54
2023/01/17 10:03:14;;;;;;;1.60;0.97;;;;;;;;;;5053211;28;20132;-52
2023/01/17 10:05:46;;;;;;;4.37;2.00;;;;;;;;;;5053798;28;20036;-52
2023/01/17 10:08:31;;;;;;;2.90;1.77;;;;;;;;;;5054109;28;20053;-55
2023/01/17 10:11:08;;;;;;;1.97;0.97;;;;;;;;;;5054180;28;20064;-56
2023/01/17 10:13:53;;;;;;;2.93;2.17;;;;;;;;;;5054542;28;20071;-53
2023/01/17 10:16:22;;;;;;;2.60;1.57;;;;;;;;;;5054090;28;20112;-54
2023/01/17 10:18:55;;;;;;;2.07;1.13;;;;;;;;;;5053675;28;20031;-55
2023/01/17 10:21:21;;;;;;;2.87;1.53;;;;;;;;;;5054264;28;20408;-53
2023/01/17 10:24:15;;;;;;;1.90;1.20;;;;;;;;;;5053608;28;20017;-55
2023/01/17 10:26:41;;;;;;;1.48;0.77;;;;;;;;;;5053737;28;20056;-55
2023/01/17 10:29:12;;;;;;;1.80;0.50;;;;;;;;;;5053960;28;20466;-53
2023/01/17 10:31:41;;;;;;;0.82;0.68;;;;;;;;;;5054276;28;20474;-49
2023/01/17 10:34:18;;;;;;;2.28;1.50;;;;;;;;;;5053553;28;20029;-54
2023/01/17 10:36:50;;;;;;;0.63;0.43;;;;;;;;;;5054005;28;20096;-56
2023/01/17 10:39:24;;;;;;;1.93;1.17;;;;;;;;;;5054007;28;20029;-55
2023/01/17 10:41:56;;;;;;;0.98;0.60;;;;;;;;;;5053570;28;20025;-52
2023/01/17 10:44:32;;;;;;;0.88;0.52;;;;;;;;;;5053866;28;20078;-49
2023/01/17 10:47:10;;;;;;;5.50;0.82;;;;;;;;;;5053753;28;20079;-54
2023/01/17 10:49:38;;;;;;;1.73;0.50;;;;;;;;;;5054036;28;20029;-54
2023/01/17 10:52:10;;;;;;;1.70;0.77;;;;;;;;;;5053482;28;20040;-54
2023/01/17 10:54:39;;;;;;;1.27;0.65;;;;;;;;;;5053486;28;20066;-55
2023/01/17 10:57:08;;;;;;;0.50;0.23;;;;;;;;;;5053416;28;20032;-51
2023/01/17 10:59:36;;;;;;;2.25;1.50;;;;;;;;;;5053720;28;20029;-56
2023/01/17 11:02:05;;;;;;;3.83;0.35;;;;;;;;;;5053013;28;20474;-54
2023/01/17 11:04:39;;;;;;;0.75;0.43;;;;;;;;;;5053701;28;20386;-55
2023/01/17 11:07:12;;;;;;;4.00;0.67;;;;;;;;;;5053049;28;20471;-50
2023/01/17 11:09:45;;;;;;;1.25;0.40;;;;;;;;;;5053572;28;20058;-56
2023/01/17 11:12:32;;;;;;;3.70;0.65;;;;;;;;;;5053229;28;20122;-54
2023/01/17 11:15:18;;;;;;;1.70;0.77;;;;;;;;;;5056507;28;20144;-54
2023/01/17 11:17:44;;;;;;;1.07;0.67;;;;;;;;;;5056919;28;20029;-54
2023/01/17 11:20:16;;;;;;;3.53;0.40;;;;;;;;;;5057056;28;20032;-53
2023/01/17 11:22:48;;;;;;;2.78;1.00;;;;;;;;;;5057274;28;20162;-52
2023/01/17 11:25:21;;;;;;;1.00;0.40;;;;;;;;;;5057380;28;20032;-54
2023/01/17 11:27:57;;;;;;;0.90;0.50;;;;;;;;;;5058014;28;20116;-53
2023/01/17 11:30:28;;;;;;;1.05;0.50;;;;;;;;;;5057345;28;20025;-54
2023/01/17 11:32:54;;;;;;;;;;;;;;;;;;5057981;28;20359;-53
2023/01/17 11:35:24;;;;;;;1.55;0.45;;;;;;;;;;5057375;28;19904;-55
2023/01/17 11:37:50;;;;;;;;;;;;;;;;;;5057173;28;20021;-55
2023/01/17 11:40:27;;;;;;;0.30;0.20;;;;;;;;;;5056638;28;20256;-55
2023/01/17 11:43:19;;;;;;;0.52;0.28;;;;;;;;;;5056919;28;20053;-55
2023/01/17 11:45:46;;;;;;;1.23;0.57;;;;;;;;;;5055276;28;20136;-52
2023/01/17 11:48:16;;;;;;;1.13;0.47;;;;;;;;;;5056797;28;20414;-55
2023/01/17 11:50:58;;;;;;;1.20;0.57;;;;;;;;;;5057255;28;20021;-55
2023/01/17 11:53:36;;;;;;;0.60;0.40;;;;;;;;;;5056187;28;20028;-51
2023/01/17 11:56:02;;;;;;;0.70;0.47;;;;;;;;;;5056374;28;20033;-53
2023/01/17 11:58:29;;;;;;;1.45;0.38;;;;;;;;;;5056315;28;20087;-52
2023/01/17 12:01:00;;;;;;;0.28;0.20;;;;;;;;;;5056758;28;20028;-55
2023/01/17 12:03:35;;;;;;;0.47;0.30;;;;;;;;;;5056633;28;20049;-54
2023/01/17 12:06:06;;;;;;;0.40;0.20;;;;;;;;;;5056171;28;20116;-56
2023/01/17 12:08:32;;;;;;;;;;;;;;;;;;5057091;28;20112;-54
2023/01/17 12:11:15;;;;;;;0.45;0.30;;;;;;;;;;5056134;28;19940;-53
2023/01/17 12:13:59;;;;;;;0.85;0.43;;;;;;;;;;5055999;28;20173;-54
2023/01/17 12:16:48;;;;;;;0.32;0.22;;;;;;;;;;5056398;28;20028;-56
2023/01/17 12:19:33;;;;;;;0.40;0.40;;;;;;;;;;5053005;28;20048;-55
2023/01/17 12:22:00;;;;;;;0.65;0.50;;;;;;;;;;5055725;28;20036;-54
2023/01/17 12:24:44;;;;;;;1.52;0.85;;;;;;;;;;5055935;28;20025;-55
2023/01/17 12:27:18;;;;;;;0.63;0.38;;;;;;;;;;5055060;28;20382;-55
2023/01/17 12:29:47;;;;;;;1.00;0.70;;;;;;;;;;5055652;28;20028;-51
2023/01/17 12:32:22;;;;;;;0.20;0.13;;;;;;;;;;5055557;28;20021;-55
2023/01/17 12:35:00;;;;;;;1.88;1.10;;;;;;;;;;5055500;28;20568;-51
2023/01/17 12:37:33;;;;;;;1.17;0.60;;;;;;;;;;5055795;28;20029;-56
2023/01/17 12:40:17;;;;;;;0.70;0.47;;;;;;;;;;5055740;28;20039;-52
2023/01/17 12:42:48;;;;;;;2.67;0.70;;;;;;;;;;5055365;28;20025;-54
2023/01/17 12:45:19;;;;;;;0.80;0.57;;;;;;;;;;5055998;28;20052;-54
2023/01/17 12:47:46;;;;;;;0.85;0.40;;;;;;;;;;5055763;28;20037;-54
2023/01/17 12:50:12;;;;;;;1.02;0.38;;;;;;;;;;5055780;28;20444;-52
2023/01/17 12:52:56;;;;;;;1.95;0.80;;;;;;;;;;5055136;28;20024;-53
2023/01/17 12:55:36;;;;;;;1.05;0.60;;;;;;;;;;5055551;28;20029;-55
2023/01/17 12:58:04;;;;;;;0.80;0.30;;;;;;;;;;5055217;28;20035;-53
2023/01/17 13:00:30;;;;;;;1.73;0.98;;;;;;;;;;5055032;28;20143;-54
2023/01/17 13:03:11;;;;;;;0.90;0.50;;;;;;;;;;5054600;28;20049;-55
2023/01/17 13:05:40;;;;;;;0.73;0.35;;;;;;;;;;5054871;28;20040;-55
2023/01/17 13:08:18;;;;;;;2.75;0.25;;;;;;;;;;5054806;28;20087;-53
2023/01/17 13:10:54;;;;;;;0.98;0.32;;;;;;;;;;5054940;28;20025;-53
2023/01/17 13:13:22;;;;;;;0.95;0.43;;;;;;;;;;5055491;28;20039;-52
2023/01/17 13:15:50;;;;;;;1.10;0.60;;;;;;;;;;5054826;28;20475;-55
2023/01/17 13:18:21;;;;;;;2.85;0.57;;;;;;;;;;5054449;28;20482;-53
2023/01/17 13:20:56;;;;;;;0.52;0.28;;;;;;;;;;5055251;28;20513;-55
2023/01/17 13:23:25;;;;;;;8.27;7.47;;;;;;;;;;5053417;28;20063;-56
2023/01/17 13:25:51;;;;;;;0.80;0.50;;;;;;;;;;5054820;28;20110;-55
2023/01/17 13:28:27;;;;;;;3.15;2.10;;;;;;;;;;5054202;28;20033;-56
2023/01/17 13:31:19;;;;;;;2.35;1.70;;;;;;;;;;5054541;28;20025;-54
2023/01/17 13:33:49;;;;;;;3.33;1.77;;;;;;;;;;5055018;28;20083;-55
2023/01/17 13:36:17;;;;;;;8.68;5.70;;;;;;;;;;5054654;28;20029;-55
2023/01/17 13:39:01;;;;;;;4.05;1.90;;;;;;;;;;5054279;28;20050;-52
2023/01/17 13:41:50;;;;;;;3.57;2.43;;;;;;;;;;5054444;28;20072;-53
2023/01/17 13:44:23;;;;;;;1.00;0.40;;;;;;;;;;5054812;28;20032;-55
2023/01/17 13:47:06;;;;;;;2.17;1.15;;;;;;;;;;5055022;28;20037;-55
2023/01/17 13:49:38;;;;;;;1.35;0.60;;;;;;;;;;5054098;28;20032;-56
2023/01/17 13:52:08;;;;;;;1.25;0.30;;;;;;;;;;5054395;28;20413;-53
2023/01/17 13:54:42;;;;;;;0.88;0.55;;;;;;;;;;5053877;28;20467;-55
2023/01/17 13:57:31;;;;;;;3.60;1.83;;;;;;;;;;5054602;28;20115;-55
2023/01/17 14:00:20;;;;;;;6.38;2.60;;;;;;;;;;5054643;28;20071;-56
2023/01/17 14:02:50;;;;;;;2.42;1.40;;;;;;;;;;5042681;28;20578;-53
2023/01/17 14:05:17;;;;;;;2.85;0.63;;;;;;;;;;5053607;28;20123;-55
2023/01/17 14:07:47;;;;;;;1.00;0.50;;;;;;;;;;5052687;28;20352;-55
2023/01/17 14:10:43;;;;;;;1.05;0.52;;;;;;;;;;5053776;28;20339;-55
2023/01/17 14:13:33;;;;;;;3.25;0.82;;;;;;;;;;5049251;28;20432;-56
2023/01/17 14:15:59;;;;;;;0.80;0.47;;;;;;;;;;5054463;28;20091;-54
2023/01/17 14:18:46;;;;;;;0.70;0.38;;;;;;;;;;5053655;28;20165;-53
2023/01/17 14:21:21;;;;;;;0.65;0.40;;;;;;;;;;5054314;28;20036;-52
2023/01/17 14:24:02;;;;;;;0.60;0.38;;;;;;;;;;5054081;28;20346;-53
2023/01/17 14:26:31;;;;;;;1.10;0.68;;;;;;;;;;5054251;28;20043;-52
2023/01/17 14:28:59;;;;;;;1.63;0.60;;;;;;;;;;5053576;28;20063;-55
2023/01/17 14:31:25;;;;;;;0.30;0.20;;;;;;;;;;5053133;28;20040;-53
2023/01/17 14:33:53;;;;;;;1.33;0.90;;;;;;;;;;5053320;28;20029;-56
2023/01/17 14:36:23;;;;;;;1.25;0.98;;;;;;;;;;5053546;28;20032;-54
2023/01/17 14:38:49;;;;;;;;;;;;;;;;;;5054228;28;20040;-54
2023/01/17 14:41:23;;;;;;;0.88;0.50;;;;;;;;;;5053554;28;19980;-53
2023/01/17 14:43:50;;;;;;;0.73;0.40;;;;;;;;;;5053828;28;20021;-53
2023/01/17 14:46:26;;;;;;;0.82;0.57;;;;;;;;;;5053441;28;20471;-54
2023/01/17 14:48:58;;;;;;;1.00;0.57;;;;;;;;;;5054927;28;20025;-55
2023/01/17 14:51:25;;;;;;;1.10;0.97;;;;;;;;;;5058059;28;20027;-54
2023/01/17 14:53:52;;;;;;;1.73;0.70;;;;;;;;;;5057415;28;20413;-55
2023/01/17 14:56:18;;;;;;;0.82;0.60;;;;;;;;;;5057252;28;20028;-57
2023/01/17 14:58:45;;;;;;;0.75;0.50;;;;;;;;;;5057354;28;20166;-56
2023/01/17 15:01:14;;;;;;;4.13;0.60;;;;;;;;;;5057199;28;20029;-56
2023/01/17 15:03:48;;;;;;;1.48;1.15;;;;;;;;;;5057257;28;20037;-53
2023/01/17 15:06:21;;;;;;;3.08;1.02;;;;;;;;;;5057187;28;20080;-55
2023/01/17 15:08:48;;;;;;;1.58;0.85;;;;;;;;;;5057407;28;20186;-58
2023/01/17 15:11:22;;;;;;;1.08;0.57;;;;;;;;;;5057464;28;20498;-57
2023/01/17 15:13:49;;;;;;;1.38;0.77;;;;;;;;;;5057430;28;20441;-56
2023/01/17 15:16:18;;;;;;;2.40;0.73;;;;;;;;;;5057664;28;20029;-54
2023/01/17 15:18:45;;;;;;;4.87;1.57;;;;;;;;;;5056924;28;20032;-53
2023/01/17 15:21:12;;;;;;;1.35;0.75;;;;;;;;;;5056880;28;20043;-56
2023/01/17 15:23:49;;;;;;;2.17;1.30;;;;;;;;;;5056859;28;20511;-57
2023/01/17 15:26:17;;;;;;;0.75;0.50;;;;;;;;;;5056724;28;20039;-57
2023/01/17 15:28:44;;;;;;;2.97;0.90;;;;;;;;;;5056758;28;20509;-55
2023/01/17 15:31:15;;;;;;;2.23;1.80;;;;;;;;;;5056602;28;20025;-53
2023/01/17 15:33:42;;;;;;;3.28;1.67;;;;;;;;;;5057104;28;20025;-54
2023/01/17 15:36:32;;;;;;;2.13;1.52;;;;;;;;;;5057416;28;20079;-56
2023/01/17 15:39:16;;;;;;;4.45;1.90;;;;;;;;;;5057595;28;20029;-56
2023/01/17 15:41:42;;;;;;;1.33;0.93;;;;;;;;;;5056557;28;20033;-56
2023/01/17 15:44:21;;;;;;;4.18;1.10;;;;;;;;;;5056462;28;20025;-57
2023/01/17 15:46:47;;;;;;;1.73;1.08;;;;;;;;;;5057012;28;20060;-57
2023/01/17 15:49:18;;;;;;;1.43;0.87;;;;;;;;;;5056261;28;20052;-54
2023/01/17 15:51:54;;;;;;;4.15;2.17;;;;;;;;;;5056280;28;20070;-54
2023/01/17 15:54:33;;;;;;;2.30;0.93;;;;;;;;;;5056503;28;20025;-55
2023/01/17 15:57:02;;;;;;;4.27;1.50;;;;;;;;;;5056058;28;20025;-55
2023/01/17 15:59:32;;;;;;;2.20;1.58;;;;;;;;;;5055631;28;20037;-55
2023/01/17 16:01:58;;;;;;;;;;;;;;;;;;5056326;28;20045;-57
2023/01/17 16:04:31;;;;;;;1.67;0.85;;;;;;;;;;5055871;28;19940;-55
2023/01/17 16:07:08;;;;;;;2.67;1.58;;;;;;;;;;5055980;28;20103;-55
2023/01/17 16:09:44;;;;;;;5.00;2.35;;;;;;;;;;5056296;28;20021;-55
2023/01/17 16:12:10;;;;;;;2.73;1.47;;;;;;;;;;5056443;28;20052;-55
2023/01/17 16:14:36;;;;;;;3.83;1.63;;;;;;;;;;5056214;28;20060;-57
2023/01/17 16:17:04;;;;;;;4.35;1.95;;;;;;;;;;5055033;28;20113;-53
2023/01/17 16:19:30;;;;;;;2.40;1.42;;;;;;;;;;5056749;28;20108;-55